sensor_id;sensor_type;location;lat;lon;timestamp;P1;durP1;ratioP1;P2;durP2;ratioP2
55780;SDS011;41699;45.078;20.968;2022-07-06T00:01:31;9.57;;;6.15;;
55780;SDS011;41699;45.078;20.968;2022-07-06T00:03:57;7.75;;;5.32;;
55780;SDS011;41699;45.078;20.968;2022-07-06T00:06:23;10.65;;;7.10;;
55780;SDS011;41699;45.078;20.968;2022-07-06T00:08:49;9.15;;;6.35;;
55780;SDS011;41699;45.078;20.968;2022-07-06T00:11:15;8.43;;;6.03;;
55780;SDS011;41699;45.078;20.968;2022-07-06T00:13:41;8.25;;;6.38;;
55780;SDS011;41699;45.078;20.968;2022-07-06T00:16:07;7.47;;;6.00;;
55780;SDS011;41699;45.078;20.968;2022-07-06T00:18:33;9.35;;;8.25;;
55780;SDS011;41699;45.078;20.968;2022-07-06T00:20:59;10.35;;;7.60;;
55780;SDS011;41699;45.078;20.968;2022-07-06T00:23:25;11.43;;;9.13;;
55780;SDS011;41699;45.078;20.968;2022-07-06T00:25:50;9.35;;;8.30;;
55780;SDS011;41699;45.078;20.968;2022-07-06T00:28:16;9.73;;;8.35;;
55780;SDS011;41699;45.078;20.968;2022-07-06T00:30:42;10.27;;;8.70;;
55780;SDS011;41699;45.078;20.968;2022-07-06T00:33:08;11.65;;;8.07;;
55780;SDS011;41699;45.078;20.968;2022-07-06T00:35:34;8.75;;;7.65;;
55780;SDS011;41699;45.078;20.968;2022-07-06T00:38:00;9.90;;;6.28;;
55780;SDS011;41699;45.078;20.968;2022-07-06T00:40:26;8.93;;;6.53;;
55780;SDS011;41699;45.078;20.968;2022-07-06T00:42:52;7.10;;;6.40;;
55780;SDS011;41699;45.078;20.968;2022-07-06T00:45:18;10.80;;;7.38;;
55780;SDS011;41699;45.078;20.968;2022-07-06T00:47:45;8.25;;;6.28;;
55780;SDS011;41699;45.078;20.968;2022-07-06T00:50:11;8.40;;;6.82;;
55780;SDS011;41699;45.078;20.968;2022-07-06T00:52:51;8.43;;;7.00;;
55780;SDS011;41699;45.078;20.968;2022-07-06T00:55:21;9.48;;;7.18;;
55780;SDS011;41699;45.078;20.968;2022-07-06T00:57:49;6.88;;;6.15;;
55780;SDS011;41699;45.078;20.968;2022-07-06T01:00:16;10.43;;;7.43;;
55780;SDS011;41699;45.078;20.968;2022-07-06T01:02:44;11.13;;;8.90;;
55780;SDS011;41699;45.078;20.968;2022-07-06T01:05:11;10.07;;;8.85;;
55780;SDS011;41699;45.078;20.968;2022-07-06T01:07:38;13.20;;;9.80;;
55780;SDS011;41699;45.078;20.968;2022-07-06T01:10:06;12.40;;;11.07;;
55780;SDS011;41699;45.078;20.968;2022-07-06T01:12:37;13.25;;;10.60;;
55780;SDS011;41699;45.078;20.968;2022-07-06T01:15:05;13.88;;;12.02;;
55780;SDS011;41699;45.078;20.968;2022-07-06T01:17:33;12.98;;;10.30;;
55780;SDS011;41699;45.078;20.968;2022-07-06T01:22:45;13.55;;;12.25;;
55780;SDS011;41699;45.078;20.968;2022-07-06T01:25:13;14.13;;;11.77;;
55780;SDS011;41699;45.078;20.968;2022-07-06T01:27:39;10.45;;;8.88;;
55780;SDS011;41699;45.078;20.968;2022-07-06T01:30:06;14.02;;;11.48;;
55780;SDS011;41699;45.078;20.968;2022-07-06T01:32:34;13.60;;;12.13;;
55780;SDS011;41699;45.078;20.968;2022-07-06T01:35:01;14.20;;;12.80;;
55780;SDS011;41699;45.078;20.968;2022-07-06T01:37:27;13.90;;;11.55;;
55780;SDS011;41699;45.078;20.968;2022-07-06T01:39:53;13.35;;;11.90;;
55780;SDS011;41699;45.078;20.968;2022-07-06T01:42:22;13.68;;;12.30;;
55780;SDS011;41699;45.078;20.968;2022-07-06T01:44:48;15.50;;;12.73;;
55780;SDS011;41699;45.078;20.968;2022-07-06T01:47:14;15.27;;;11.88;;
55780;SDS011;41699;45.078;20.968;2022-07-06T01:49:39;14.10;;;12.23;;
55780;SDS011;41699;45.078;20.968;2022-07-06T01:52:05;14.75;;;10.65;;
55780;SDS011;41699;45.078;20.968;2022-07-06T01:54:31;16.20;;;12.70;;
55780;SDS011;41699;45.078;20.968;2022-07-06T01:56:57;11.88;;;10.68;;
55780;SDS011;41699;45.078;20.968;2022-07-06T01:59:23;13.95;;;11.55;;
55780;SDS011;41699;45.078;20.968;2022-07-06T02:01:49;15.23;;;12.02;;
55780;SDS011;41699;45.078;20.968;2022-07-06T02:04:14;16.60;;;12.20;;
55780;SDS011;41699;45.078;20.968;2022-07-06T02:06:40;10.60;;;9.52;;
55780;SDS011;41699;45.078;20.968;2022-07-06T02:09:06;14.27;;;12.32;;
55780;SDS011;41699;45.078;20.968;2022-07-06T02:11:31;9.98;;;7.50;;
55780;SDS011;41699;45.078;20.968;2022-07-06T02:13:57;12.18;;;9.43;;
55780;SDS011;41699;45.078;20.968;2022-07-06T02:16:23;12.70;;;9.27;;
55780;SDS011;41699;45.078;20.968;2022-07-06T02:18:49;14.90;;;12.68;;
55780;SDS011;41699;45.078;20.968;2022-07-06T02:21:15;10.32;;;8.93;;
55780;SDS011;41699;45.078;20.968;2022-07-06T02:23:40;14.98;;;12.70;;
55780;SDS011;41699;45.078;20.968;2022-07-06T02:26:06;19.25;;;13.05;;
55780;SDS011;41699;45.078;20.968;2022-07-06T02:28:32;15.70;;;13.02;;
55780;SDS011;41699;45.078;20.968;2022-07-06T02:30:58;14.05;;;12.52;;
55780;SDS011;41699;45.078;20.968;2022-07-06T02:33:23;17.85;;;13.45;;
55780;SDS011;41699;45.078;20.968;2022-07-06T02:35:49;18.10;;;13.95;;
55780;SDS011;41699;45.078;20.968;2022-07-06T02:38:15;17.13;;;13.63;;
55780;SDS011;41699;45.078;20.968;2022-07-06T02:40:41;14.30;;;12.60;;
55780;SDS011;41699;45.078;20.968;2022-07-06T02:43:06;14.95;;;13.10;;
55780;SDS011;41699;45.078;20.968;2022-07-06T02:45:33;17.50;;;13.70;;
55780;SDS011;41699;45.078;20.968;2022-07-06T02:47:59;20.30;;;14.07;;
55780;SDS011;41699;45.078;20.968;2022-07-06T02:50:25;18.92;;;13.82;;
55780;SDS011;41699;45.078;20.968;2022-07-06T02:52:51;17.77;;;13.80;;
55780;SDS011;41699;45.078;20.968;2022-07-06T02:55:16;15.25;;;13.68;;
55780;SDS011;41699;45.078;20.968;2022-07-06T02:57:42;17.55;;;13.52;;
55780;SDS011;41699;45.078;20.968;2022-07-06T03:00:09;15.13;;;12.77;;
55780;SDS011;41699;45.078;20.968;2022-07-06T03:02:35;14.73;;;12.75;;
55780;SDS011;41699;45.078;20.968;2022-07-06T03:05:01;16.55;;;13.55;;
55780;SDS011;41699;45.078;20.968;2022-07-06T03:07:27;17.58;;;12.45;;
55780;SDS011;41699;45.078;20.968;2022-07-06T03:09:53;16.20;;;12.55;;
55780;SDS011;41699;45.078;20.968;2022-07-06T03:12:19;15.40;;;12.05;;
55780;SDS011;41699;45.078;20.968;2022-07-06T03:14:45;16.77;;;12.45;;
55780;SDS011;41699;45.078;20.968;2022-07-06T03:17:11;17.10;;;12.45;;
55780;SDS011;41699;45.078;20.968;2022-07-06T03:19:36;16.15;;;12.18;;
55780;SDS011;41699;45.078;20.968;2022-07-06T03:22:02;13.95;;;12.55;;
55780;SDS011;41699;45.078;20.968;2022-07-06T03:24:28;16.02;;;12.82;;
55780;SDS011;41699;45.078;20.968;2022-07-06T03:26:54;13.40;;;12.00;;
55780;SDS011;41699;45.078;20.968;2022-07-06T03:29:20;14.02;;;12.02;;
55780;SDS011;41699;45.078;20.968;2022-07-06T03:31:46;14.88;;;12.40;;
55780;SDS011;41699;45.078;20.968;2022-07-06T03:34:11;14.63;;;11.65;;
55780;SDS011;41699;45.078;20.968;2022-07-06T03:36:37;16.38;;;12.85;;
55780;SDS011;41699;45.078;20.968;2022-07-06T03:39:03;16.42;;;12.75;;
55780;SDS011;41699;45.078;20.968;2022-07-06T03:41:29;13.07;;;11.68;;
55780;SDS011;41699;45.078;20.968;2022-07-06T03:43:55;17.15;;;13.18;;
55780;SDS011;41699;45.078;20.968;2022-07-06T03:46:21;15.23;;;13.40;;
55780;SDS011;41699;45.078;20.968;2022-07-06T03:48:47;15.80;;;12.82;;
55780;SDS011;41699;45.078;20.968;2022-07-06T03:51:12;14.65;;;12.95;;
55780;SDS011;41699;45.078;20.968;2022-07-06T03:53:38;18.17;;;13.50;;
55780;SDS011;41699;45.078;20.968;2022-07-06T03:56:04;15.57;;;13.00;;
55780;SDS011;41699;45.078;20.968;2022-07-06T03:58:48;13.98;;;12.57;;
55780;SDS011;41699;45.078;20.968;2022-07-06T04:01:14;15.95;;;13.32;;
55780;SDS011;41699;45.078;20.968;2022-07-06T04:03:40;14.52;;;13.02;;
55780;SDS011;41699;45.078;20.968;2022-07-06T04:06:05;17.27;;;12.73;;
55780;SDS011;41699;45.078;20.968;2022-07-06T04:08:31;13.55;;;11.93;;
55780;SDS011;41699;45.078;20.968;2022-07-06T04:10:57;16.38;;;13.25;;
55780;SDS011;41699;45.078;20.968;2022-07-06T04:13:23;16.27;;;12.98;;
55780;SDS011;41699;45.078;20.968;2022-07-06T04:15:50;18.77;;;12.18;;
55780;SDS011;41699;45.078;20.968;2022-07-06T04:18:16;15.63;;;12.27;;
55780;SDS011;41699;45.078;20.968;2022-07-06T04:20:42;15.70;;;12.95;;
55780;SDS011;41699;45.078;20.968;2022-07-06T04:23:08;15.00;;;13.40;;
55780;SDS011;41699;45.078;20.968;2022-07-06T04:25:34;14.55;;;12.30;;
55780;SDS011;41699;45.078;20.968;2022-07-06T04:28:00;13.32;;;12.02;;
55780;SDS011;41699;45.078;20.968;2022-07-06T04:30:26;12.65;;;10.75;;
55780;SDS011;41699;45.078;20.968;2022-07-06T04:32:52;13.65;;;11.15;;
55780;SDS011;41699;45.078;20.968;2022-07-06T04:35:18;11.38;;;10.02;;
55780;SDS011;41699;45.078;20.968;2022-07-06T04:37:44;10.63;;;9.50;;
55780;SDS011;41699;45.078;20.968;2022-07-06T04:40:13;14.55;;;10.63;;
55780;SDS011;41699;45.078;20.968;2022-07-06T04:42:39;11.13;;;8.95;;
55780;SDS011;41699;45.078;20.968;2022-07-06T04:45:05;10.68;;;8.90;;
55780;SDS011;41699;45.078;20.968;2022-07-06T04:47:31;10.65;;;8.77;;
55780;SDS011;41699;45.078;20.968;2022-07-06T04:49:57;10.43;;;9.50;;
55780;SDS011;41699;45.078;20.968;2022-07-06T04:52:23;10.65;;;8.82;;
55780;SDS011;41699;45.078;20.968;2022-07-06T04:54:49;9.15;;;8.30;;
55780;SDS011;41699;45.078;20.968;2022-07-06T04:57:15;9.00;;;7.95;;
55780;SDS011;41699;45.078;20.968;2022-07-06T04:59:41;9.18;;;8.27;;
55780;SDS011;41699;45.078;20.968;2022-07-06T05:02:07;9.35;;;8.27;;
55780;SDS011;41699;45.078;20.968;2022-07-06T05:04:32;9.55;;;8.60;;
55780;SDS011;41699;45.078;20.968;2022-07-06T05:06:58;10.52;;;8.35;;
55780;SDS011;41699;45.078;20.968;2022-07-06T05:09:24;8.68;;;7.78;;
55780;SDS011;41699;45.078;20.968;2022-07-06T05:11:50;9.65;;;8.48;;
55780;SDS011;41699;45.078;20.968;2022-07-06T05:14:16;8.45;;;7.68;;
55780;SDS011;41699;45.078;20.968;2022-07-06T05:16:42;8.13;;;7.32;;
55780;SDS011;41699;45.078;20.968;2022-07-06T05:19:07;8.48;;;7.25;;
55780;SDS011;41699;45.078;20.968;2022-07-06T05:21:33;9.02;;;8.13;;
55780;SDS011;41699;45.078;20.968;2022-07-06T05:23:59;8.57;;;7.68;;
55780;SDS011;41699;45.078;20.968;2022-07-06T05:26:25;8.07;;;7.28;;
55780;SDS011;41699;45.078;20.968;2022-07-06T05:28:50;8.85;;;7.95;;
55780;SDS011;41699;45.078;20.968;2022-07-06T05:31:16;8.23;;;7.53;;
55780;SDS011;41699;45.078;20.968;2022-07-06T05:33:42;10.05;;;7.57;;
55780;SDS011;41699;45.078;20.968;2022-07-06T05:36:08;8.98;;;7.47;;
55780;SDS011;41699;45.078;20.968;2022-07-06T05:38:34;9.00;;;7.65;;
55780;SDS011;41699;45.078;20.968;2022-07-06T05:41:00;8.25;;;6.97;;
55780;SDS011;41699;45.078;20.968;2022-07-06T05:43:25;9.25;;;7.38;;
55780;SDS011;41699;45.078;20.968;2022-07-06T05:45:51;8.43;;;7.15;;
55780;SDS011;41699;45.078;20.968;2022-07-06T05:48:17;9.15;;;7.78;;
55780;SDS011;41699;45.078;20.968;2022-07-06T05:51:01;7.90;;;7.13;;
55780;SDS011;41699;45.078;20.968;2022-07-06T05:53:27;8.00;;;7.20;;
55780;SDS011;41699;45.078;20.968;2022-07-06T05:55:53;7.70;;;6.90;;
55780;SDS011;41699;45.078;20.968;2022-07-06T05:58:18;6.88;;;6.18;;
55780;SDS011;41699;45.078;20.968;2022-07-06T06:00:44;6.90;;;6.20;;
55780;SDS011;41699;45.078;20.968;2022-07-06T06:03:10;9.52;;;5.90;;
55780;SDS011;41699;45.078;20.968;2022-07-06T06:05:36;7.45;;;6.72;;
55780;SDS011;41699;45.078;20.968;2022-07-06T08:24:51;4.72;;;4.03;;
55780;SDS011;41699;45.078;20.968;2022-07-06T08:27:17;4.80;;;3.97;;
55780;SDS011;41699;45.078;20.968;2022-07-06T08:29:43;7.80;;;4.28;;
55780;SDS011;41699;45.078;20.968;2022-07-06T08:32:09;6.47;;;4.35;;
55780;SDS011;41699;45.078;20.968;2022-07-06T08:34:35;5.97;;;4.10;;
55780;SDS011;41699;45.078;20.968;2022-07-06T08:37:01;6.80;;;4.10;;
55780;SDS011;41699;45.078;20.968;2022-07-06T08:39:27;4.75;;;3.60;;
55780;SDS011;41699;45.078;20.968;2022-07-06T08:41:53;4.65;;;3.80;;
55780;SDS011;41699;45.078;20.968;2022-07-06T08:44:21;4.93;;;4.20;;
55780;SDS011;41699;45.078;20.968;2022-07-06T08:46:49;4.63;;;3.67;;
55780;SDS011;41699;45.078;20.968;2022-07-06T08:49:19;4.53;;;3.97;;
55780;SDS011;41699;45.078;20.968;2022-07-06T08:51:45;5.03;;;4.13;;
55780;SDS011;41699;45.078;20.968;2022-07-06T08:54:11;5.97;;;3.97;;
55780;SDS011;41699;45.078;20.968;2022-07-06T08:56:38;7.82;;;4.30;;
55780;SDS011;41699;45.078;20.968;2022-07-06T08:59:04;4.63;;;3.60;;
55780;SDS011;41699;45.078;20.968;2022-07-06T09:01:33;6.13;;;3.88;;
55780;SDS011;41699;45.078;20.968;2022-07-06T09:04:00;5.47;;;3.75;;
55780;SDS011;41699;45.078;20.968;2022-07-06T09:06:30;7.47;;;3.88;;
55780;SDS011;41699;45.078;20.968;2022-07-06T09:08:56;5.85;;;3.50;;
55780;SDS011;41699;45.078;20.968;2022-07-06T09:11:23;5.68;;;4.03;;
55780;SDS011;41699;45.078;20.968;2022-07-06T09:13:50;5.50;;;3.83;;
55780;SDS011;41699;45.078;20.968;2022-07-06T09:16:17;4.88;;;3.75;;
55780;SDS011;41699;45.078;20.968;2022-07-06T09:18:49;5.50;;;3.70;;
55780;SDS011;41699;45.078;20.968;2022-07-06T09:21:25;4.85;;;3.60;;
55780;SDS011;41699;45.078;20.968;2022-07-06T09:23:53;5.25;;;3.70;;
55780;SDS011;41699;45.078;20.968;2022-07-06T09:26:20;5.68;;;3.63;;
55780;SDS011;41699;45.078;20.968;2022-07-06T09:28:46;4.22;;;3.47;;
55780;SDS011;41699;45.078;20.968;2022-07-06T09:31:12;5.43;;;3.80;;
55780;SDS011;41699;45.078;20.968;2022-07-06T09:33:38;5.45;;;3.28;;
55780;SDS011;41699;45.078;20.968;2022-07-06T09:36:17;4.03;;;3.47;;
55780;SDS011;41699;45.078;20.968;2022-07-06T09:39:19;5.78;;;3.70;;
55780;SDS011;41699;45.078;20.968;2022-07-06T09:41:50;5.30;;;3.75;;
55780;SDS011;41699;45.078;20.968;2022-07-06T09:44:25;4.40;;;3.40;;
55780;SDS011;41699;45.078;20.968;2022-07-06T09:46:52;3.78;;;3.38;;
55780;SDS011;41699;45.078;20.968;2022-07-06T09:49:20;3.78;;;3.03;;
55780;SDS011;41699;45.078;20.968;2022-07-06T09:51:47;4.78;;;3.80;;
55780;SDS011;41699;45.078;20.968;2022-07-06T09:54:14;4.75;;;3.42;;
55780;SDS011;41699;45.078;20.968;2022-07-06T09:56:42;5.00;;;3.42;;
55780;SDS011;41699;45.078;20.968;2022-07-06T09:59:13;5.70;;;3.63;;
55780;SDS011;41699;45.078;20.968;2022-07-06T10:01:40;5.95;;;3.53;;
55780;SDS011;41699;45.078;20.968;2022-07-06T10:04:07;6.13;;;3.20;;
55780;SDS011;41699;45.078;20.968;2022-07-06T10:06:35;6.38;;;3.30;;
55780;SDS011;41699;45.078;20.968;2022-07-06T10:09:02;7.95;;;2.97;;
55780;SDS011;41699;45.078;20.968;2022-07-06T10:11:31;3.88;;;2.30;;
55780;SDS011;41699;45.078;20.968;2022-07-06T10:14:02;3.78;;;2.58;;
55780;SDS011;41699;45.078;20.968;2022-07-06T10:16:30;3.50;;;2.30;;
55780;SDS011;41699;45.078;20.968;2022-07-06T10:18:56;4.57;;;2.67;;
55780;SDS011;41699;45.078;20.968;2022-07-06T10:21:23;4.47;;;3.30;;
55780;SDS011;41699;45.078;20.968;2022-07-06T10:23:50;3.30;;;2.30;;
55780;SDS011;41699;45.078;20.968;2022-07-06T10:26:17;2.83;;;2.10;;
55780;SDS011;41699;45.078;20.968;2022-07-06T10:28:44;5.90;;;2.30;;
55780;SDS011;41699;45.078;20.968;2022-07-06T10:31:12;3.55;;;2.13;;
55780;SDS011;41699;45.078;20.968;2022-07-06T10:33:42;3.50;;;2.20;;
55780;SDS011;41699;45.078;20.968;2022-07-06T10:36:09;4.43;;;1.95;;
55780;SDS011;41699;45.078;20.968;2022-07-06T10:38:36;4.32;;;2.20;;
55780;SDS011;41699;45.078;20.968;2022-07-06T10:41:06;5.40;;;2.20;;
55780;SDS011;41699;45.078;20.968;2022-07-06T10:46:13;3.45;;;1.90;;
55780;SDS011;41699;45.078;20.968;2022-07-06T10:48:44;6.72;;;2.30;;
55780;SDS011;41699;45.078;20.968;2022-07-06T10:51:12;4.68;;;2.00;;
55780;SDS011;41699;45.078;20.968;2022-07-06T10:53:49;4.03;;;2.05;;
55780;SDS011;41699;45.078;20.968;2022-07-06T10:56:33;6.47;;;2.28;;
55780;SDS011;41699;45.078;20.968;2022-07-06T10:59:08;3.05;;;1.80;;
55780;SDS011;41699;45.078;20.968;2022-07-06T11:01:36;4.55;;;2.00;;
55780;SDS011;41699;45.078;20.968;2022-07-06T11:06:28;3.50;;;1.83;;
55780;SDS011;41699;45.078;20.968;2022-07-06T11:09:01;2.90;;;1.80;;
55780;SDS011;41699;45.078;20.968;2022-07-06T11:14:05;4.63;;;2.28;;
55780;SDS011;41699;45.078;20.968;2022-07-06T11:19:17;4.03;;;2.25;;
55780;SDS011;41699;45.078;20.968;2022-07-06T11:21:45;4.05;;;2.08;;
55780;SDS011;41699;45.078;20.968;2022-07-06T11:24:15;6.47;;;2.25;;
55780;SDS011;41699;45.078;20.968;2022-07-06T11:26:46;3.67;;;1.80;;
55780;SDS011;41699;45.078;20.968;2022-07-06T11:29:13;4.53;;;2.30;;
55780;SDS011;41699;45.078;20.968;2022-07-06T11:31:40;5.50;;;2.60;;
55780;SDS011;41699;45.078;20.968;2022-07-06T11:34:08;4.28;;;2.47;;
55780;SDS011;41699;45.078;20.968;2022-07-06T11:36:35;7.30;;;2.35;;
55780;SDS011;41699;45.078;20.968;2022-07-06T11:39:03;4.88;;;2.60;;
55780;SDS011;41699;45.078;20.968;2022-07-06T11:41:30;2.97;;;2.00;;
55780;SDS011;41699;45.078;20.968;2022-07-06T11:43:56;5.57;;;1.98;;
55780;SDS011;41699;45.078;20.968;2022-07-06T11:48:55;4.28;;;2.25;;
55780;SDS011;41699;45.078;20.968;2022-07-06T11:51:31;5.13;;;2.80;;
55780;SDS011;41699;45.078;20.968;2022-07-06T11:54:00;4.13;;;2.47;;
55780;SDS011;41699;45.078;20.968;2022-07-06T11:56:29;3.35;;;2.35;;
55780;SDS011;41699;45.078;20.968;2022-07-06T11:58:56;2.92;;;2.25;;
55780;SDS011;41699;45.078;20.968;2022-07-06T12:01:23;4.10;;;2.13;;
55780;SDS011;41699;45.078;20.968;2022-07-06T12:03:51;5.47;;;2.08;;
55780;SDS011;41699;45.078;20.968;2022-07-06T12:06:21;5.57;;;2.45;;
55780;SDS011;41699;45.078;20.968;2022-07-06T12:08:52;7.10;;;2.10;;
55780;SDS011;41699;45.078;20.968;2022-07-06T12:11:20;4.93;;;2.15;;
55780;SDS011;41699;45.078;20.968;2022-07-06T12:13:56;4.35;;;2.20;;
55780;SDS011;41699;45.078;20.968;2022-07-06T12:16:34;3.47;;;2.40;;
55780;SDS011;41699;45.078;20.968;2022-07-06T12:19:04;3.25;;;2.10;;
55780;SDS011;41699;45.078;20.968;2022-07-06T12:21:31;3.78;;;2.28;;
55780;SDS011;41699;45.078;20.968;2022-07-06T12:23:59;4.63;;;2.30;;
55780;SDS011;41699;45.078;20.968;2022-07-06T12:26:27;3.08;;;2.10;;
55780;SDS011;41699;45.078;20.968;2022-07-06T12:29:04;7.47;;;2.30;;
55780;SDS011;41699;45.078;20.968;2022-07-06T12:34:21;5.15;;;2.15;;
55780;SDS011;41699;45.078;20.968;2022-07-06T12:36:52;5.20;;;2.78;;
55780;SDS011;41699;45.078;20.968;2022-07-06T12:39:20;3.00;;;2.22;;
55780;SDS011;41699;45.078;20.968;2022-07-06T12:41:51;3.35;;;2.03;;
55780;SDS011;41699;45.078;20.968;2022-07-06T12:44:20;4.28;;;2.20;;
55780;SDS011;41699;45.078;20.968;2022-07-06T12:46:48;3.30;;;2.47;;
55780;SDS011;41699;45.078;20.968;2022-07-06T12:49:21;3.67;;;2.42;;
55780;SDS011;41699;45.078;20.968;2022-07-06T12:51:48;5.68;;;2.75;;
55780;SDS011;41699;45.078;20.968;2022-07-06T12:54:20;4.25;;;2.70;;
55780;SDS011;41699;45.078;20.968;2022-07-06T12:59:35;2.90;;;2.20;;
55780;SDS011;41699;45.078;20.968;2022-07-06T13:02:04;3.22;;;2.70;;
55780;SDS011;41699;45.078;20.968;2022-07-06T13:04:31;4.28;;;2.30;;
55780;SDS011;41699;45.078;20.968;2022-07-06T13:06:58;3.67;;;2.47;;
55780;SDS011;41699;45.078;20.968;2022-07-06T13:09:25;4.13;;;2.78;;
55780;SDS011;41699;45.078;20.968;2022-07-06T13:11:50;4.65;;;2.53;;
55780;SDS011;41699;45.078;20.968;2022-07-06T13:14:17;3.53;;;2.63;;
55780;SDS011;41699;45.078;20.968;2022-07-06T13:16:44;5.45;;;2.90;;
55780;SDS011;41699;45.078;20.968;2022-07-06T13:19:10;4.07;;;2.60;;
55780;SDS011;41699;45.078;20.968;2022-07-06T13:21:36;4.00;;;2.80;;
55780;SDS011;41699;45.078;20.968;2022-07-06T13:24:03;3.92;;;2.67;;
55780;SDS011;41699;45.078;20.968;2022-07-06T13:26:29;3.95;;;2.47;;
55780;SDS011;41699;45.078;20.968;2022-07-06T13:29:01;3.70;;;2.30;;
55780;SDS011;41699;45.078;20.968;2022-07-06T13:31:28;5.25;;;2.50;;
55780;SDS011;41699;45.078;20.968;2022-07-06T13:33:55;3.85;;;2.60;;
55780;SDS011;41699;45.078;20.968;2022-07-06T13:36:25;5.95;;;2.80;;
55780;SDS011;41699;45.078;20.968;2022-07-06T13:38:50;3.42;;;2.63;;
55780;SDS011;41699;45.078;20.968;2022-07-06T13:41:16;5.03;;;2.40;;
55780;SDS011;41699;45.078;20.968;2022-07-06T13:43:42;3.97;;;2.47;;
55780;SDS011;41699;45.078;20.968;2022-07-06T13:46:08;7.03;;;2.60;;
55780;SDS011;41699;45.078;20.968;2022-07-06T13:48:36;4.97;;;2.38;;
55780;SDS011;41699;45.078;20.968;2022-07-06T13:51:02;3.65;;;2.47;;
55780;SDS011;41699;45.078;20.968;2022-07-06T13:53:28;6.88;;;2.25;;
55780;SDS011;41699;45.078;20.968;2022-07-06T13:55:55;5.22;;;2.80;;
55780;SDS011;41699;45.078;20.968;2022-07-06T13:58:21;5.03;;;3.17;;
55780;SDS011;41699;45.078;20.968;2022-07-06T14:00:47;10.38;;;3.45;;
55780;SDS011;41699;45.078;20.968;2022-07-06T14:03:13;3.30;;;2.60;;
55780;SDS011;41699;45.078;20.968;2022-07-06T14:05:39;5.38;;;2.80;;
55780;SDS011;41699;45.078;20.968;2022-07-06T14:08:05;5.43;;;3.30;;
55780;SDS011;41699;45.078;20.968;2022-07-06T14:10:30;6.28;;;3.20;;
55780;SDS011;41699;45.078;20.968;2022-07-06T14:12:56;9.40;;;4.13;;
55780;SDS011;41699;45.078;20.968;2022-07-06T14:15:22;6.45;;;3.50;;
55780;SDS011;41699;45.078;20.968;2022-07-06T14:17:48;4.07;;;3.38;;
55780;SDS011;41699;45.078;20.968;2022-07-06T14:20:14;8.60;;;3.50;;
55780;SDS011;41699;45.078;20.968;2022-07-06T14:22:40;7.43;;;3.40;;
55780;SDS011;41699;45.078;20.968;2022-07-06T14:25:06;6.53;;;3.65;;
55780;SDS011;41699;45.078;20.968;2022-07-06T14:27:36;3.88;;;3.20;;
55780;SDS011;41699;45.078;20.968;2022-07-06T14:30:02;8.43;;;3.67;;
55780;SDS011;41699;45.078;20.968;2022-07-06T14:32:29;5.63;;;3.63;;
55780;SDS011;41699;45.078;20.968;2022-07-06T14:34:54;3.60;;;2.90;;
55780;SDS011;41699;45.078;20.968;2022-07-06T14:37:20;6.55;;;3.50;;
55780;SDS011;41699;45.078;20.968;2022-07-06T14:39:46;7.00;;;3.85;;
55780;SDS011;41699;45.078;20.968;2022-07-06T14:42:13;5.72;;;3.55;;
55780;SDS011;41699;45.078;20.968;2022-07-06T14:44:39;9.18;;;4.22;;
55780;SDS011;41699;45.078;20.968;2022-07-06T14:47:05;6.05;;;4.68;;
55780;SDS011;41699;45.078;20.968;2022-07-06T14:49:31;6.55;;;4.43;;
55780;SDS011;41699;45.078;20.968;2022-07-06T14:51:57;6.95;;;4.45;;
55780;SDS011;41699;45.078;20.968;2022-07-06T14:54:23;9.55;;;4.43;;
55780;SDS011;41699;45.078;20.968;2022-07-06T14:56:50;7.32;;;4.15;;
55780;SDS011;41699;45.078;20.968;2022-07-06T14:59:16;8.10;;;4.28;;
55780;SDS011;41699;45.078;20.968;2022-07-06T15:01:41;7.63;;;4.28;;
55780;SDS011;41699;45.078;20.968;2022-07-06T15:04:07;5.38;;;4.63;;
55780;SDS011;41699;45.078;20.968;2022-07-06T15:06:33;6.78;;;4.28;;
55780;SDS011;41699;45.078;20.968;2022-07-06T15:08:59;8.27;;;4.22;;
55780;SDS011;41699;45.078;20.968;2022-07-06T15:11:29;6.35;;;4.10;;
55780;SDS011;41699;45.078;20.968;2022-07-06T15:13:56;6.25;;;4.20;;
55780;SDS011;41699;45.078;20.968;2022-07-06T15:16:21;5.00;;;3.28;;
55780;SDS011;41699;45.078;20.968;2022-07-06T15:18:49;8.05;;;3.83;;
55780;SDS011;41699;45.078;20.968;2022-07-06T15:21:15;7.82;;;3.70;;
55780;SDS011;41699;45.078;20.968;2022-07-06T15:23:41;4.65;;;3.17;;
55780;SDS011;41699;45.078;20.968;2022-07-06T15:26:07;7.55;;;3.50;;
55780;SDS011;41699;45.078;20.968;2022-07-06T15:28:33;7.40;;;3.63;;
55780;SDS011;41699;45.078;20.968;2022-07-06T15:30:59;6.20;;;2.90;;
55780;SDS011;41699;45.078;20.968;2022-07-06T15:33:25;7.45;;;3.42;;
55780;SDS011;41699;45.078;20.968;2022-07-06T15:35:51;8.73;;;3.60;;
55780;SDS011;41699;45.078;20.968;2022-07-06T15:38:17;5.78;;;3.45;;
55780;SDS011;41699;45.078;20.968;2022-07-06T15:40:43;7.07;;;3.17;;
55780;SDS011;41699;45.078;20.968;2022-07-06T15:43:24;5.07;;;3.17;;
55780;SDS011;41699;45.078;20.968;2022-07-06T15:45:55;6.75;;;4.28;;
55780;SDS011;41699;45.078;20.968;2022-07-06T15:48:22;5.95;;;4.10;;
55780;SDS011;41699;45.078;20.968;2022-07-06T15:50:49;7.93;;;3.90;;
55780;SDS011;41699;45.078;20.968;2022-07-06T15:53:15;5.80;;;3.13;;
55780;SDS011;41699;45.078;20.968;2022-07-06T15:55:41;5.40;;;3.65;;
55780;SDS011;41699;45.078;20.968;2022-07-06T15:58:07;6.80;;;3.33;;
55780;SDS011;41699;45.078;20.968;2022-07-06T16:00:33;6.55;;;3.60;;
55780;SDS011;41699;45.078;20.968;2022-07-06T16:02:59;5.10;;;3.58;;
55780;SDS011;41699;45.078;20.968;2022-07-06T16:05:25;4.15;;;3.50;;
55780;SDS011;41699;45.078;20.968;2022-07-06T16:07:52;7.75;;;3.70;;
55780;SDS011;41699;45.078;20.968;2022-07-06T16:10:18;5.75;;;3.63;;
55780;SDS011;41699;45.078;20.968;2022-07-06T16:12:43;6.35;;;3.60;;
55780;SDS011;41699;45.078;20.968;2022-07-06T16:15:09;5.85;;;3.13;;
55780;SDS011;41699;45.078;20.968;2022-07-06T16:17:35;6.68;;;3.45;;
55780;SDS011;41699;45.078;20.968;2022-07-06T16:20:01;5.43;;;3.28;;
55780;SDS011;41699;45.078;20.968;2022-07-06T16:22:27;5.78;;;3.00;;
55780;SDS011;41699;45.078;20.968;2022-07-06T16:24:53;5.68;;;2.80;;
55780;SDS011;41699;45.078;20.968;2022-07-06T16:27:18;4.45;;;2.60;;
55780;SDS011;41699;45.078;20.968;2022-07-06T16:29:45;6.03;;;3.20;;
55780;SDS011;41699;45.078;20.968;2022-07-06T16:32:11;5.32;;;3.40;;
55780;SDS011;41699;45.078;20.968;2022-07-06T16:34:37;8.15;;;3.30;;
55780;SDS011;41699;45.078;20.968;2022-07-06T16:37:02;4.32;;;3.30;;
55780;SDS011;41699;45.078;20.968;2022-07-06T16:39:28;5.28;;;3.40;;
55780;SDS011;41699;45.078;20.968;2022-07-06T16:41:54;5.88;;;3.50;;
55780;SDS011;41699;45.078;20.968;2022-07-06T16:44:20;8.10;;;2.88;;
55780;SDS011;41699;45.078;20.968;2022-07-06T16:46:46;4.43;;;2.75;;
55780;SDS011;41699;45.078;20.968;2022-07-06T16:49:12;6.55;;;2.28;;
55780;SDS011;41699;45.078;20.968;2022-07-06T16:51:38;3.75;;;1.50;;
55780;SDS011;41699;45.078;20.968;2022-07-06T16:54:03;4.43;;;1.75;;
55780;SDS011;41699;45.078;20.968;2022-07-06T16:56:29;5.25;;;1.52;;
55780;SDS011;41699;45.078;20.968;2022-07-06T16:58:55;2.60;;;1.70;;
55780;SDS011;41699;45.078;20.968;2022-07-06T17:01:21;3.53;;;1.88;;
55780;SDS011;41699;45.078;20.968;2022-07-06T17:03:46;3.67;;;1.77;;
55780;SDS011;41699;45.078;20.968;2022-07-06T17:06:12;2.92;;;1.60;;